Terminal Aerodrome Forecast
Issued by NWS

Home | Current Version | Previous Version | Text Only | Print | Product List | Glossary On
Versions: 1 2 3 4 5 6 7 8 9 10 11 12 13 14 15 16 17 18 19 20 21 22 23 24 25 26 27 28 29 30 31 32 33 34 35 36 37 38 39 40 41 42 43 44 45 46 47 48 49 50
000
FTUS44 KHGX 222154 AAA
TAFSGR
TAF AMD
KSGR 222154Z 2222/2318 31005KT 5SM BR SCT006 BKN021 OVC045
      TEMPO 2223/2302 4SM BR BKN010 OVC020
     FM230200 15005KT 4SM BR OVC006
     FM230500 15003KT 1SM BR OVC004
     FM230600 14002KT 1/2SM FG OVC002
     FM231300 15007KT 1SM BR VCSH OVC003
     FM231500 15009KT 5SM BR VCSH SCT004 OVC012=

USA.gov is the U.S. government's official web portal to all federal, state and local government web resources and services.